< < Back
Terminal Aerodrome Forecast


Current Version              Previous Versions:   1  2  3  4  5  6  7  8  9  

Terminal Aerodrome Forecast

681
FTUS42 KFFC 011122
TAFCSG
TAF
KCSG 011122Z 0112/0212 08010KT 4SM -RADZ OVC008
     FM011900 08005KT 6SM BR BKN008
     FM020200 00000KT 2SM -DZ OVC004=

Latest METAR

111
SAUS70 KWBC 011200 RRI
MTRCSG
METAR KCSG 011151Z AUTO 11008KT 4SM BR OVC005 06/04 A3046 RMK AO2 RAE06
SLP317 P0000 60005 70005 T00560044 10067 20056 53005


USA.gov is the U.S. government's official web portal to all federal, state and local government web resources and services.